createdAt,value
2019-03-26T00:00:25.896Z,0.00
2019-03-26T00:01:26.506Z,0.00
2019-03-26T00:02:26.830Z,0.00
2019-03-26T00:03:27.237Z,0.00
2019-03-26T00:04:27.551Z,0.00
2019-03-26T00:05:27.664Z,0.00
2019-03-26T00:06:28.086Z,0.00
2019-03-26T00:07:28.300Z,0.00
2019-03-26T00:08:28.909Z,0.00
2019-03-26T00:09:28.915Z,0.00
2019-03-26T00:10:29.433Z,0.00
2019-03-26T00:11:29.544Z,0.00
2019-03-26T00:13:29.665Z,0.00
2019-03-26T00:14:29.765Z,0.00
2019-03-26T00:15:29.538Z,0.00
2019-03-26T00:16:30.089Z,0.00
2019-03-26T00:17:30.210Z,0.00
2019-03-26T00:18:30.201Z,0.00
2019-03-26T00:19:30.722Z,0.00
2019-03-26T00:20:30.730Z,0.00
2019-03-26T00:21:30.427Z,0.00
2019-03-26T00:22:31.056Z,0.00
2019-03-26T00:23:31.160Z,0.00
2019-03-26T00:24:31.063Z,0.00
2019-03-26T00:25:31.481Z,0.00
2019-03-26T00:26:31.791Z,0.00
2019-03-26T00:27:32.023Z,0.00
2019-03-26T00:28:32.521Z,0.00
2019-03-26T00:29:33.041Z,0.00
2019-03-26T00:30:33.018Z,0.00
2019-03-26T00:31:33.361Z,0.00
2019-03-26T00:32:33.890Z,0.00
2019-03-26T00:33:36.608Z,0.00
2019-03-26T00:34:33.702Z,0.00
2019-03-26T00:35:34.013Z,0.00
2019-03-26T00:36:34.416Z,0.00
2019-03-26T00:37:34.739Z,0.00
2019-03-26T00:38:35.287Z,0.00
2019-03-26T00:39:35.038Z,0.00
2019-03-26T00:40:35.260Z,0.00
2019-03-26T00:41:35.473Z,0.00
2019-03-26T00:42:36.100Z,0.00
2019-03-26T00:43:35.895Z,0.00
2019-03-26T00:44:36.108Z,0.00
2019-03-26T00:45:36.627Z,0.00
2019-03-26T00:46:36.742Z,0.00
2019-03-26T00:47:36.543Z,0.00
2019-03-26T00:48:36.753Z,0.00
2019-03-26T00:50:37.072Z,0.00
2019-03-26T00:51:37.401Z,0.00
2019-03-26T00:52:38.011Z,0.00
2019-03-26T00:53:38.223Z,0.00
2019-03-26T00:54:38.016Z,0.00
2019-03-26T00:55:38.535Z,0.00
2019-03-26T00:56:38.225Z,0.00
2019-03-26T00:57:38.550Z,0.00
2019-03-26T00:58:39.071Z,0.00
2019-03-26T00:59:39.174Z,0.00
2019-03-26T01:00:38.876Z,0.00
2019-03-26T01:01:38.882Z,0.00
2019-03-26T01:02:39.213Z,0.00
2019-03-26T01:03:40.344Z,0.00
2019-03-26T01:04:40.334Z,0.00
2019-03-26T01:05:40.338Z,0.00
2019-03-26T01:06:40.855Z,0.00
2019-03-26T01:07:40.870Z,0.00
2019-03-26T01:08:40.045Z,0.00
2019-03-26T01:09:40.880Z,0.00
2019-03-26T01:10:41.499Z,0.00
2019-03-26T01:11:41.461Z,0.00
2019-03-26T01:12:42.036Z,0.00
2019-03-26T01:13:41.830Z,0.00
2019-03-26T01:14:42.344Z,0.00
2019-03-26T01:15:42.453Z,0.00
2019-03-26T01:16:42.464Z,0.00
2019-03-26T01:17:42.885Z,0.00
2019-03-26T01:18:43.293Z,0.00
2019-03-26T01:19:43.711Z,0.00
2019-03-26T01:20:44.127Z,0.00
2019-03-26T01:21:44.749Z,0.00
2019-03-26T01:22:44.657Z,0.00
2019-03-26T01:23:45.199Z,0.00
2019-03-26T01:24:45.177Z,0.00
2019-03-26T01:25:45.695Z,0.00
2019-03-26T01:26:45.592Z,0.00
2019-03-26T01:27:46.116Z,0.00
2019-03-26T01:28:46.223Z,0.00
2019-03-26T01:29:46.137Z,0.00
2019-03-26T01:30:46.644Z,0.00
2019-03-26T01:31:46.765Z,0.00
2019-03-26T01:32:46.820Z,0.00
2019-03-26T01:33:46.882Z,0.00
2019-03-26T01:34:46.898Z,0.00
2019-03-26T01:36:47.001Z,0.00
2019-03-26T01:37:47.007Z,0.00
2019-03-26T01:38:47.415Z,0.00
2019-03-26T01:39:47.941Z,0.00
2019-03-26T01:40:48.048Z,0.00
2019-03-26T01:41:48.156Z,0.00
2019-03-26T01:42:48.167Z,0.00
2019-03-26T01:43:48.272Z,0.00
2019-03-26T01:44:48.180Z,0.00
2019-03-26T01:45:48.550Z,0.00
2019-03-26T01:46:49.004Z,0.00
2019-03-26T01:47:48.815Z,0.00
2019-03-26T01:48:49.322Z,0.00
2019-03-26T01:50:49.441Z,0.00
2019-03-26T01:51:49.447Z,0.00
2019-03-26T01:52:49.562Z,0.00
2019-03-26T01:53:49.560Z,0.00
2019-03-26T01:54:49.877Z,0.00
2019-03-26T01:55:50.188Z,0.00
2019-03-26T01:56:50.318Z,0.00
2019-03-26T01:57:50.823Z,0.00
2019-03-26T01:58:50.721Z,0.00
2019-03-26T01:59:51.035Z,0.00
2019-03-26T02:00:51.453Z,0.00
2019-03-26T02:01:51.770Z,0.00
2019-03-26T02:02:52.300Z,0.00
2019-03-26T02:03:52.292Z,0.00
2019-03-26T02:05:00.015Z,0.00
2019-03-26T02:05:52.921Z,0.00
2019-03-26T02:06:53.500Z,0.00
2019-03-26T02:07:53.455Z,0.00
2019-03-26T02:08:53.966Z,0.00
2019-03-26T02:09:53.970Z,0.00
2019-03-26T02:10:54.490Z,0.00
2019-03-26T02:11:54.290Z,0.00
2019-03-26T02:12:54.609Z,0.00
2019-03-26T02:13:54.926Z,0.00
2019-03-26T02:14:55.544Z,0.00
2019-03-26T02:15:55.444Z,0.00
2019-03-26T02:16:55.957Z,0.00
2019-03-26T02:17:55.979Z,0.00
2019-03-26T02:18:56.174Z,0.00
2019-03-26T02:19:56.080Z,0.00
2019-03-26T02:20:56.396Z,0.00
2019-03-26T02:21:56.706Z,0.00
2019-03-26T02:22:57.441Z,0.00
2019-03-26T02:23:57.550Z,0.00
2019-03-26T02:24:57.546Z,0.00
2019-03-26T02:25:57.967Z,0.00
2019-03-26T02:27:58.601Z,0.00
2019-03-26T02:28:58.701Z,0.00
2019-03-26T02:29:58.709Z,0.00
2019-03-26T02:30:58.822Z,0.00
2019-03-26T02:31:58.927Z,0.00
2019-03-26T02:32:58.447Z,0.00
2019-03-26T02:33:58.939Z,0.00
2019-03-26T02:35:16.207Z,0.00
2019-03-26T02:35:59.667Z,0.00
2019-03-26T02:37:00.187Z,0.00
2019-03-26T02:38:00.814Z,0.00
2019-03-26T02:39:00.827Z,0.00
2019-03-26T02:40:00.963Z,0.00
2019-03-26T02:41:01.342Z,0.00
2019-03-26T02:42:01.447Z,0.00
2019-03-26T02:43:01.358Z,0.00
2019-03-26T02:44:01.919Z,0.00
2019-03-26T02:45:01.982Z,0.00
2019-03-26T02:46:02.497Z,0.00
2019-03-26T02:47:02.608Z,0.00
2019-03-26T02:48:02.733Z,0.00
2019-03-26T02:49:02.824Z,0.00
2019-03-26T02:50:02.809Z,0.00
2019-03-26T02:51:03.054Z,0.00
2019-03-26T02:52:03.153Z,0.00
2019-03-26T02:53:03.064Z,0.00
2019-03-26T02:54:03.381Z,0.00
2019-03-26T02:55:03.740Z,0.00
2019-03-26T02:56:04.295Z,0.00
2019-03-26T02:57:04.719Z,0.00
2019-03-26T02:58:05.042Z,0.00
2019-03-26T02:59:05.418Z,0.00
2019-03-26T03:00:05.662Z,0.00
2019-03-26T03:01:06.181Z,0.00
2019-03-26T03:02:06.393Z,0.00
2019-03-26T03:03:06.712Z,0.00
2019-03-26T03:04:07.121Z,0.00
2019-03-26T03:05:07.445Z,0.00
2019-03-26T03:06:07.953Z,0.00
2019-03-26T03:08:08.385Z,0.00
2019-03-26T03:09:08.488Z,0.00
2019-03-26T03:10:08.193Z,0.00
2019-03-26T03:11:08.497Z,0.00
2019-03-26T03:12:08.912Z,0.00
2019-03-26T03:13:09.249Z,0.00
2019-03-26T03:14:09.847Z,0.00
2019-03-26T03:15:09.754Z,0.00
2019-03-26T03:16:10.277Z,0.00
2019-03-26T03:17:09.969Z,0.00
2019-03-26T03:18:10.195Z,0.00
2019-03-26T03:19:10.668Z,0.00
2019-03-26T03:20:11.117Z,0.00
2019-03-26T03:21:11.473Z,0.00
2019-03-26T03:22:11.949Z,0.00
2019-03-26T03:23:12.478Z,0.00
2019-03-26T03:24:12.475Z,0.00
2019-03-26T03:25:12.996Z,0.00
2019-03-26T03:26:12.898Z,0.00
2019-03-26T03:27:13.419Z,0.00
2019-03-26T03:28:13.736Z,0.00
2019-03-26T03:29:13.944Z,0.00
2019-03-26T03:30:13.966Z,0.00
2019-03-26T03:31:14.066Z,0.00
2019-03-26T03:32:14.076Z,0.00
2019-03-26T03:33:14.242Z,0.00
2019-03-26T03:34:14.404Z,0.00
2019-03-26T03:35:15.015Z,0.00
2019-03-26T03:36:15.008Z,0.00
2019-03-26T03:37:15.221Z,0.00
2019-03-26T03:38:15.645Z,0.00
2019-03-26T03:39:16.166Z,0.00
2019-03-26T03:40:16.164Z,0.00
2019-03-26T03:41:16.783Z,0.00
2019-03-26T03:42:16.790Z,0.00
2019-03-26T03:43:16.905Z,0.00
2019-03-26T03:44:17.006Z,0.00
2019-03-26T03:45:17.119Z,0.00
2019-03-26T03:46:17.428Z,0.00
2019-03-26T03:47:17.234Z,0.00
2019-03-26T03:48:17.760Z,0.00
2019-03-26T03:49:17.861Z,0.00
2019-03-26T03:50:17.973Z,0.00
2019-03-26T03:51:17.779Z,0.00
2019-03-26T03:52:18.185Z,0.00
2019-03-26T03:53:18.813Z,0.00
2019-03-26T03:54:18.614Z,0.00
2019-03-26T03:55:19.023Z,0.00
2019-03-26T03:56:18.935Z,0.00
2019-03-26T03:57:19.449Z,0.00
2019-03-26T03:58:19.563Z,0.00
2019-03-26T03:59:19.663Z,0.00
2019-03-26T04:00:19.673Z,0.00
2019-03-26T04:01:19.786Z,0.00
2019-03-26T04:02:19.858Z,0.00
2019-03-26T04:03:20.317Z,0.00
2019-03-26T04:04:20.624Z,0.00
2019-03-26T04:05:20.630Z,0.00
2019-03-26T04:06:21.351Z,0.00
2019-03-26T04:07:21.968Z,0.00
2019-03-26T04:08:21.996Z,0.00
2019-03-26T04:09:21.879Z,0.00
2019-03-26T04:10:22.265Z,0.00
2019-03-26T04:11:22.715Z,0.00
2019-03-26T04:12:23.348Z,0.00
2019-03-26T04:13:23.356Z,0.00
2019-03-26T04:14:23.866Z,0.00
2019-03-26T04:15:23.763Z,0.00
2019-03-26T04:16:24.385Z,0.00
2019-03-26T04:17:24.392Z,0.00
2019-03-26T04:18:24.514Z,0.00
2019-03-26T04:19:24.302Z,0.00
2019-03-26T04:20:24.821Z,0.00
2019-03-26T04:21:24.520Z,0.00
2019-03-26T04:22:24.842Z,0.00
2019-03-26T04:24:25.159Z,0.00
2019-03-26T04:25:25.572Z,0.00
2019-03-26T04:26:25.949Z,0.00
2019-03-26T04:27:26.206Z,0.00
2019-03-26T04:28:26.828Z,0.00
2019-03-26T04:29:26.824Z,0.00
2019-03-26T04:30:27.136Z,0.00
2019-03-26T04:31:27.251Z,0.00
2019-03-26T04:32:27.484Z,0.00
2019-03-26T04:33:27.682Z,0.00
2019-03-26T04:34:28.189Z,0.00
2019-03-26T04:35:28.606Z,0.00
2019-03-26T04:36:28.922Z,0.00
2019-03-26T04:37:29.130Z,0.00
2019-03-26T04:38:29.351Z,0.00
2019-03-26T04:39:29.856Z,1.00
2019-03-26T04:40:29.658Z,1.00
2019-03-26T04:41:30.079Z,1.00
2019-03-26T04:42:30.388Z,1.00
2019-03-26T04:43:30.818Z,2.00
2019-03-26T04:44:31.128Z,1.00
2019-03-26T04:45:31.639Z,2.00
2019-03-26T04:46:32.044Z,3.00
2019-03-26T04:47:32.059Z,3.00
2019-03-26T04:48:31.970Z,4.00
2019-03-26T04:49:32.485Z,4.00
2019-03-26T04:50:32.491Z,5.00
2019-03-26T04:51:32.872Z,6.00
2019-03-26T04:52:33.428Z,7.00
2019-03-26T04:53:34.276Z,9.00
2019-03-26T04:54:33.234Z,10.00
2019-03-26T04:55:33.853Z,13.00
2019-03-26T04:56:33.977Z,15.00
2019-03-26T04:57:33.664Z,18.00
2019-03-26T04:58:34.194Z,21.00
2019-03-26T04:59:33.982Z,26.00
2019-03-26T05:00:34.196Z,30.00
2019-03-26T05:01:34.712Z,37.00
2019-03-26T05:02:35.029Z,43.00
2019-03-26T05:03:35.392Z,51.00
2019-03-26T05:04:35.655Z,60.00
2019-03-26T05:05:36.069Z,71.00
2019-03-26T05:06:38.279Z,84.00
2019-03-26T05:07:36.800Z,97.00
2019-03-26T05:08:37.041Z,112.00
2019-03-26T05:09:37.631Z,129.00
2019-03-26T05:10:37.435Z,148.00
2019-03-26T05:11:37.650Z,168.00
2019-03-26T05:12:37.856Z,189.00
2019-03-26T05:13:38.178Z,212.00
2019-03-26T05:14:38.386Z,237.00
2019-03-26T05:15:38.799Z,263.00
2019-03-26T05:16:39.112Z,291.00
2019-03-26T05:17:39.631Z,321.00
2019-03-26T05:18:39.644Z,353.00
2019-03-26T05:19:39.745Z,386.00
2019-03-26T05:20:39.660Z,420.00
2019-03-26T05:21:39.966Z,454.00
2019-03-26T05:22:40.485Z,489.00
2019-03-26T05:23:40.603Z,523.00
2019-03-26T05:24:40.494Z,559.00
2019-03-26T05:25:40.910Z,597.00
2019-03-26T05:26:41.328Z,639.00
2019-03-26T05:27:45.634Z,682.00
2019-03-26T05:28:42.170Z,726.00
2019-03-26T05:29:42.165Z,769.00
2019-03-26T05:30:42.834Z,813.00
2019-03-26T05:31:42.383Z,857.00
2019-03-26T05:32:42.803Z,902.00
2019-03-26T05:33:43.224Z,949.00
2019-03-26T05:34:43.467Z,996.00
2019-03-26T05:35:43.949Z,1042.00
2019-03-26T05:36:51.255Z,1090.00
2019-03-26T05:37:44.267Z,1138.00
2019-03-26T05:38:44.791Z,1187.00
2019-03-26T05:39:44.590Z,1235.00
2019-03-26T05:40:45.109Z,1283.00
2019-03-26T05:41:45.116Z,1331.00
2019-03-26T05:42:45.529Z,1378.00
2019-03-26T05:43:45.849Z,1426.00
2019-03-26T05:44:46.463Z,1474.00
2019-03-26T05:45:46.578Z,1522.00
2019-03-26T05:46:46.474Z,1571.00
2019-03-26T05:47:46.997Z,1621.00
2019-03-26T05:48:46.907Z,1673.00
2019-03-26T05:49:47.007Z,1718.00
2019-03-26T05:50:47.525Z,1755.00
2019-03-26T05:51:48.045Z,1807.00
2019-03-26T05:52:48.153Z,1862.00
2019-03-26T05:53:48.269Z,1918.00
2019-03-26T05:54:48.164Z,1954.00
2019-03-26T05:55:48.478Z,2005.00
2019-03-26T05:56:48.793Z,2051.00
2019-03-26T05:57:49.209Z,2080.00
2019-03-26T05:58:49.532Z,2107.00
2019-03-26T05:59:49.940Z,2150.00
2019-03-26T06:00:50.257Z,2195.00
2019-03-26T06:01:50.771Z,2250.00
2019-03-26T06:02:50.676Z,2335.00
2019-03-26T06:03:50.943Z,2417.00
2019-03-26T06:04:51.101Z,2531.00
2019-03-26T06:05:51.617Z,2651.00
2019-03-26T06:07:03.971Z,2754.00
2019-03-26T06:07:51.630Z,2762.00
2019-03-26T06:08:52.960Z,2842.00
2019-03-26T06:09:52.472Z,2917.00
2019-03-26T06:10:53.030Z,3027.00
2019-03-26T06:11:53.293Z,3140.00
2019-03-26T06:12:53.709Z,3235.00
2019-03-26T06:13:54.086Z,3466.00
2019-03-26T06:14:54.250Z,3729.00
2019-03-26T06:15:54.478Z,3746.00
2019-03-26T06:16:54.639Z,3511.00
2019-03-26T06:17:57.388Z,3276.00
2019-03-26T06:18:55.389Z,3161.00
2019-03-26T06:19:55.302Z,3107.00
2019-03-26T06:20:55.504Z,3131.00
2019-03-26T06:21:55.918Z,3188.00
2019-03-26T06:22:56.234Z,3305.00
2019-03-26T06:23:56.855Z,3349.00
2019-03-26T06:24:56.973Z,3327.00
2019-03-26T06:25:56.970Z,3339.00
2019-03-26T06:26:56.670Z,3310.00
2019-03-26T06:27:57.394Z,3243.00
2019-03-26T06:28:57.608Z,3173.00
2019-03-26T06:29:58.035Z,3192.00
2019-03-26T06:30:58.343Z,3248.00
2019-03-26T06:31:58.854Z,3263.00
2019-03-26T06:32:58.862Z,3373.00
2019-03-26T06:33:58.840Z,3517.00
2019-03-26T06:34:59.306Z,3628.00
2019-03-26T06:35:59.697Z,3706.00
2019-03-26T06:37:00.218Z,3763.00
2019-03-26T06:38:00.121Z,3852.00
2019-03-26T06:39:00.332Z,3941.00
2019-03-26T06:40:00.461Z,4022.00
2019-03-26T06:41:00.454Z,4072.00
2019-03-26T06:42:01.065Z,4117.00
2019-03-26T06:43:01.070Z,4150.00
2019-03-26T06:44:00.978Z,4198.00
2019-03-26T06:45:01.564Z,4268.00
2019-03-26T06:46:01.714Z,4335.00
2019-03-26T06:47:01.724Z,4372.00
2019-03-26T06:48:04.278Z,4422.00
2019-03-26T06:49:02.241Z,4459.00
2019-03-26T06:50:02.775Z,4483.00
2019-03-26T06:51:02.788Z,4543.00
2019-03-26T06:53:03.498Z,4547.00
2019-03-26T06:54:03.605Z,4590.00
2019-03-26T06:55:03.921Z,4669.00
2019-03-26T06:56:03.697Z,4889.00
2019-03-26T06:57:04.040Z,5011.00
2019-03-26T06:58:03.945Z,4987.00
2019-03-26T06:59:04.153Z,4908.00
2019-03-26T07:00:06.992Z,4930.00
2019-03-26T07:01:04.476Z,5016.00
2019-03-26T07:02:04.068Z,4995.00
2019-03-26T07:03:04.254Z,5092.00
2019-03-26T07:04:04.901Z,5367.00
2019-03-26T07:05:05.324Z,5671.00
2019-03-26T07:06:05.535Z,5911.00
2019-03-26T07:07:05.953Z,6138.00
2019-03-26T07:08:06.458Z,6368.00
2019-03-26T07:09:06.587Z,6690.00
2019-03-26T07:10:06.582Z,7028.00
2019-03-26T07:11:06.590Z,7855.00
2019-03-26T07:12:07.909Z,8573.00
2019-03-26T07:13:07.105Z,8708.00
2019-03-26T07:14:07.420Z,8580.00
2019-03-26T07:15:07.941Z,8319.00
2019-03-26T07:16:07.953Z,8069.00
2019-03-26T07:17:08.262Z,8048.00
2019-03-26T07:18:08.781Z,8055.00
2019-03-26T07:19:08.688Z,7941.00
2019-03-26T07:20:08.691Z,7701.00
2019-03-26T07:21:08.706Z,7250.00
2019-03-26T07:22:09.625Z,6644.00
2019-03-26T07:23:10.040Z,6125.00
2019-03-26T07:24:10.667Z,5990.00
2019-03-26T07:25:10.391Z,6206.00
2019-03-26T07:26:10.685Z,6618.00
2019-03-26T07:27:11.396Z,7207.00
2019-03-26T07:28:11.305Z,7692.00
2019-03-26T07:29:11.923Z,7709.00
2019-03-26T07:30:12.030Z,7426.00
2019-03-26T07:31:11.947Z,7501.00
2019-03-26T07:32:12.254Z,7905.00
2019-03-26T07:33:12.765Z,8691.00
2019-03-26T07:34:12.579Z,9748.00
2019-03-26T07:35:12.984Z,11070.00
2019-03-26T07:36:13.412Z,12123.00
2019-03-26T07:38:14.034Z,12044.00
2019-03-26T07:39:14.039Z,11842.00
2019-03-26T07:40:13.775Z,11821.00
2019-03-26T07:41:14.255Z,11776.00
2019-03-26T07:42:14.681Z,11554.00
2019-03-26T07:43:15.189Z,11293.00
2019-03-26T07:44:15.606Z,11092.00
2019-03-26T07:45:16.227Z,11092.00
2019-03-26T07:46:16.025Z,11613.00
2019-03-26T07:47:16.557Z,12394.00
2019-03-26T07:48:16.450Z,12447.00
2019-03-26T07:49:16.763Z,11696.00
2019-03-26T07:50:17.387Z,11025.00
2019-03-26T07:51:17.493Z,10861.00
2019-03-26T07:53:17.615Z,10953.00
2019-03-26T07:54:17.720Z,10755.00
2019-03-26T07:55:17.831Z,10740.00
2019-03-26T07:56:17.831Z,11044.00
2019-03-26T07:57:17.847Z,12042.00
2019-03-26T07:58:17.950Z,14203.00
2019-03-26T07:59:17.920Z,16921.00
2019-03-26T08:00:18.269Z,16381.00
2019-03-26T08:01:18.279Z,14811.00
2019-03-26T08:02:18.489Z,15016.00
2019-03-26T08:03:21.115Z,65536.00
2019-03-26T08:04:19.178Z,16897.00
2019-03-26T08:05:29.289Z,15604.00
2019-03-26T08:06:19.847Z,16995.00
2019-03-26T08:07:19.960Z,16230.00
2019-03-26T08:08:20.265Z,17444.00
2019-03-26T08:09:20.364Z,65536.00
2019-03-26T08:10:20.585Z,65536.00
2019-03-26T08:11:20.697Z,65536.00
2019-03-26T08:12:20.919Z,15052.00
2019-03-26T08:13:21.053Z,15783.00
2019-03-26T08:14:21.436Z,16488.00
2019-03-26T08:15:21.890Z,16130.00
2019-03-26T08:16:22.372Z,15596.00
2019-03-26T08:17:22.419Z,14584.00
2019-03-26T08:18:22.174Z,13492.00
2019-03-26T08:19:22.691Z,13024.00
2019-03-26T08:20:22.595Z,12752.00
2019-03-26T08:21:23.118Z,11934.00
2019-03-26T08:22:23.542Z,10518.00
2019-03-26T08:23:23.749Z,8942.00
2019-03-26T08:24:24.159Z,7858.00
2019-03-26T08:25:24.479Z,7014.00
2019-03-26T08:26:26.119Z,6160.00
2019-03-26T08:27:25.213Z,5355.00
2019-03-26T08:28:25.118Z,4762.00
2019-03-26T08:29:25.734Z,4299.00
2019-03-26T08:30:25.437Z,3902.00
2019-03-26T08:31:25.916Z,3701.00
2019-03-26T08:32:26.364Z,3571.00
2019-03-26T08:33:26.788Z,3413.00
2019-03-26T08:34:27.399Z,3367.00
2019-03-26T08:35:27.208Z,3480.00
2019-03-26T08:36:27.618Z,3671.00
2019-03-26T08:37:28.135Z,3803.00
2019-03-26T08:38:28.105Z,3820.00
2019-03-26T08:39:28.458Z,3792.00
2019-03-26T08:40:28.671Z,3754.00
2019-03-26T08:41:29.189Z,3780.00
2019-03-26T08:42:29.297Z,3855.00
2019-03-26T08:43:29.171Z,3968.00
2019-03-26T08:44:29.726Z,4124.00
2019-03-26T08:45:29.830Z,4312.00
2019-03-26T08:46:29.941Z,4445.00
2019-03-26T08:47:30.047Z,4497.00
2019-03-26T08:48:29.908Z,4494.00
2019-03-26T08:49:31.128Z,4510.00
2019-03-26T08:50:30.378Z,4617.00
2019-03-26T08:51:30.687Z,4863.00
2019-03-26T08:52:31.311Z,5168.00
2019-03-26T08:53:31.327Z,5496.00
2019-03-26T08:54:31.424Z,5861.00
2019-03-26T08:55:31.436Z,6223.00
2019-03-26T08:56:31.647Z,6531.00
2019-03-26T08:57:31.547Z,6751.00
2019-03-26T08:58:32.082Z,6895.00
2019-03-26T08:59:32.173Z,7192.00
2019-03-26T09:00:32.380Z,7623.00
2019-03-26T09:01:32.084Z,8030.00
2019-03-26T09:02:32.479Z,8399.00
2019-03-26T09:03:32.712Z,8734.00
2019-03-26T09:04:32.929Z,9045.00
2019-03-26T09:05:33.598Z,9303.00
2019-03-26T09:06:33.540Z,9717.00
2019-03-26T09:07:33.761Z,10293.00
2019-03-26T09:08:34.078Z,10808.00
2019-03-26T09:09:34.391Z,11136.00
2019-03-26T09:10:34.506Z,11485.00
2019-03-26T09:11:34.711Z,11851.00
2019-03-26T09:12:35.226Z,12174.00
2019-03-26T09:13:35.334Z,12207.00
2019-03-26T09:14:35.346Z,12137.00
2019-03-26T09:15:35.157Z,12221.00
2019-03-26T09:16:35.560Z,12521.00
2019-03-26T09:17:35.669Z,12940.00
2019-03-26T09:18:36.031Z,13324.00
2019-03-26T09:19:36.518Z,13380.00
2019-03-26T09:20:36.916Z,13070.00
2019-03-26T09:21:37.336Z,12636.00
2019-03-26T09:22:37.646Z,12358.00
2019-03-26T09:23:38.271Z,12152.00
2019-03-26T09:24:38.077Z,11885.00
2019-03-26T09:25:38.692Z,11629.00
2019-03-26T09:26:38.595Z,11628.00
2019-03-26T09:27:39.215Z,11707.00
2019-03-26T09:28:39.325Z,11744.00
2019-03-26T09:29:39.230Z,11623.00
2019-03-26T09:30:39.453Z,11440.00
2019-03-26T09:31:40.060Z,11253.00
2019-03-26T09:32:39.976Z,11268.00
2019-03-26T09:33:40.283Z,11467.00
2019-03-26T09:34:40.696Z,11584.00
2019-03-26T09:35:41.022Z,11550.00
2019-03-26T09:36:41.433Z,11527.00
2019-03-26T09:37:41.533Z,11465.00
2019-03-26T09:38:41.957Z,11319.00
2019-03-26T09:39:42.468Z,11138.00
2019-03-26T09:40:42.372Z,10946.00
2019-03-26T09:41:42.805Z,10999.00
2019-03-26T09:42:43.105Z,11133.00
2019-03-26T09:43:43.425Z,11442.00
2019-03-26T09:44:43.522Z,11671.00
2019-03-26T09:45:43.839Z,11623.00
2019-03-26T09:46:44.097Z,11490.00
2019-03-26T09:47:44.674Z,11570.00
2019-03-26T09:48:44.480Z,11510.00
2019-03-26T09:49:44.891Z,11396.00
2019-03-26T09:50:45.406Z,11320.00
2019-03-26T09:51:45.311Z,11440.00
2019-03-26T09:52:45.834Z,11794.00
2019-03-26T09:53:45.742Z,12444.00
2019-03-26T09:54:45.845Z,13208.00
2019-03-26T09:55:46.370Z,13887.00
2019-03-26T09:56:45.962Z,14566.00
2019-03-26T09:57:46.339Z,15304.00
2019-03-26T09:58:46.990Z,15785.00
2019-03-26T09:59:47.003Z,16113.00
2019-03-26T10:00:47.649Z,16124.00
2019-03-26T10:01:47.530Z,15509.00
2019-03-26T10:02:47.943Z,14680.00
2019-03-26T10:03:48.156Z,14005.00
2019-03-26T10:04:48.698Z,13155.00
2019-03-26T10:05:48.578Z,13071.00
2019-03-26T10:06:49.196Z,13298.00
2019-03-26T10:07:49.312Z,13485.00
2019-03-26T10:08:52.774Z,13862.00
2019-03-26T10:09:49.640Z,14261.00
2019-03-26T10:10:49.641Z,14657.00
2019-03-26T10:11:50.052Z,14809.00
2019-03-26T10:12:50.365Z,14910.00
2019-03-26T10:13:50.370Z,15011.00
2019-03-26T10:14:50.897Z,14687.00
2019-03-26T10:15:50.689Z,14014.00
2019-03-26T10:16:51.316Z,13570.00
2019-03-26T10:17:51.325Z,13256.00
2019-03-26T10:18:51.941Z,13151.00
2019-03-26T10:19:51.889Z,13125.00
2019-03-26T10:20:52.465Z,13202.00
2019-03-26T10:21:52.167Z,12999.00
2019-03-26T10:22:52.994Z,12478.00
2019-03-26T10:23:53.101Z,11961.00
2019-03-26T10:24:52.581Z,11314.00
2019-03-26T10:25:52.780Z,10842.00
2019-03-26T10:26:53.737Z,10753.00
2019-03-26T10:27:54.149Z,10673.00
2019-03-26T10:28:54.579Z,10626.00
2019-03-26T10:29:55.106Z,10553.00
2019-03-26T10:30:55.192Z,10340.00
2019-03-26T10:31:55.317Z,10266.00
2019-03-26T10:32:55.103Z,10161.00
2019-03-26T10:33:55.417Z,9930.00
2019-03-26T10:34:55.747Z,9566.00
2019-03-26T10:35:56.355Z,9412.00
2019-03-26T10:36:56.639Z,9484.00
2019-03-26T10:37:57.284Z,9712.00
2019-03-26T10:39:05.370Z,10264.00
2019-03-26T10:39:57.927Z,11115.00
2019-03-26T10:40:58.022Z,12022.00
2019-03-26T10:41:57.928Z,12945.00
2019-03-26T10:42:58.138Z,13791.00
2019-03-26T10:43:58.100Z,14339.00
2019-03-26T10:44:58.469Z,14564.00
2019-03-26T10:45:59.081Z,14392.00
2019-03-26T10:46:59.086Z,14055.00
2019-03-26T10:47:59.715Z,14049.00
2019-03-26T10:48:59.751Z,14513.00
2019-03-26T10:50:00.069Z,14700.00
2019-03-26T10:51:00.699Z,14354.00
2019-03-26T10:52:00.661Z,13721.00
2019-03-26T10:53:01.071Z,13448.00
2019-03-26T10:54:01.706Z,12942.00
2019-03-26T10:55:01.553Z,13350.00
2019-03-26T10:56:01.819Z,13745.00
2019-03-26T10:57:02.040Z,13832.00
2019-03-26T10:58:02.128Z,13318.00
2019-03-26T10:59:04.157Z,14174.00
2019-03-26T11:00:02.347Z,16931.00
2019-03-26T11:01:02.872Z,65536.00
2019-03-26T11:02:03.076Z,65536.00
2019-03-26T11:03:03.206Z,65536.00
2019-03-26T11:04:03.299Z,65536.00
2019-03-26T11:05:03.811Z,65536.00
2019-03-26T11:06:03.828Z,65536.00
2019-03-26T11:07:04.132Z,65536.00
2019-03-26T11:08:04.652Z,65536.00
2019-03-26T11:09:18.879Z,65536.00
2019-03-26T11:10:05.179Z,65536.00
2019-03-26T11:11:05.712Z,17023.00
2019-03-26T11:12:05.705Z,15241.00
2019-03-26T11:13:05.812Z,13877.00
2019-03-26T11:14:05.816Z,12698.00
2019-03-26T11:15:05.615Z,11638.00
2019-03-26T11:16:05.937Z,10707.00
2019-03-26T11:17:05.738Z,10059.00
2019-03-26T11:18:06.150Z,9906.00
2019-03-26T11:19:06.206Z,9747.00
2019-03-26T11:20:06.688Z,9398.00
2019-03-26T11:21:06.585Z,9116.00
2019-03-26T11:22:06.999Z,8911.00
2019-03-26T11:23:07.616Z,8477.00
2019-03-26T11:24:07.725Z,8112.00
2019-03-26T11:25:07.740Z,7943.00
2019-03-26T11:26:07.752Z,8046.00
2019-03-26T11:27:08.056Z,8153.00
2019-03-26T11:28:08.878Z,8047.00
2019-03-26T11:29:08.987Z,7879.00
2019-03-26T11:30:08.790Z,7804.00
2019-03-26T11:31:09.315Z,7732.00
2019-03-26T11:32:09.311Z,7811.00
2019-03-26T11:33:14.574Z,8078.00
2019-03-26T11:34:08.709Z,8210.00
2019-03-26T11:35:09.398Z,8189.00
2019-03-26T11:36:09.617Z,8215.00
2019-03-26T11:37:10.026Z,8284.00
2019-03-26T11:38:10.345Z,8503.00
2019-03-26T11:39:10.555Z,8751.00
2019-03-26T11:40:10.222Z,9071.00
2019-03-26T11:41:10.325Z,9417.00
2019-03-26T11:42:10.564Z,9507.00
2019-03-26T11:43:10.827Z,9679.00
2019-03-26T11:44:10.974Z,10352.00
2019-03-26T11:45:11.246Z,11063.00
2019-03-26T11:46:11.440Z,11187.00
2019-03-26T11:47:11.667Z,10674.00
2019-03-26T11:48:11.930Z,10321.00
2019-03-26T11:49:12.194Z,10518.00
2019-03-26T11:51:12.390Z,11693.00
2019-03-26T11:52:12.574Z,12848.00
2019-03-26T11:53:12.827Z,13954.00
2019-03-26T11:54:12.984Z,14640.00
2019-03-26T11:55:13.275Z,14569.00
2019-03-26T11:56:13.508Z,14109.00
2019-03-26T11:57:13.896Z,13811.00
2019-03-26T11:58:14.123Z,12719.00
2019-03-26T11:59:14.272Z,11886.00
2019-03-26T12:00:14.554Z,11518.00
2019-03-26T12:01:15.129Z,10932.00
2019-03-26T12:02:16.307Z,10898.00
2019-03-26T12:03:16.341Z,10872.00
2019-03-26T12:04:16.455Z,11018.00
2019-03-26T12:05:16.454Z,11228.00
2019-03-26T12:06:16.476Z,11783.00
2019-03-26T12:07:16.212Z,12464.00
2019-03-26T12:08:16.781Z,13047.00
2019-03-26T12:09:16.687Z,13080.00
2019-03-26T12:10:17.312Z,13099.00
2019-03-26T12:11:17.319Z,13426.00
2019-03-26T12:12:17.218Z,14350.00
2019-03-26T12:13:17.632Z,65536.00
2019-03-26T12:14:18.051Z,15807.00
2019-03-26T12:15:18.568Z,15830.00
2019-03-26T12:16:18.585Z,65536.00
2019-03-26T12:17:18.486Z,65536.00
2019-03-26T12:18:18.887Z,65536.00
2019-03-26T12:19:19.419Z,65536.00
2019-03-26T12:20:19.113Z,65536.00
2019-03-26T12:21:19.232Z,65536.00
2019-03-26T12:22:19.739Z,65536.00
2019-03-26T12:23:19.850Z,65536.00
2019-03-26T12:24:19.649Z,65536.00
2019-03-26T12:25:20.167Z,65536.00
2019-03-26T12:26:19.775Z,17223.00
2019-03-26T12:27:19.978Z,16324.00
2019-03-26T12:28:20.506Z,15572.00
2019-03-26T12:29:20.503Z,15166.00
2019-03-26T12:30:20.570Z,14906.00
2019-03-26T12:31:21.035Z,14423.00
2019-03-26T12:32:21.444Z,13661.00
2019-03-26T12:33:21.757Z,13394.00
2019-03-26T12:34:22.176Z,12762.00
2019-03-26T12:35:22.280Z,12237.00
2019-03-26T12:36:22.911Z,11984.00
2019-03-26T12:37:23.319Z,11694.00
2019-03-26T12:38:23.428Z,12000.00
2019-03-26T12:39:23.850Z,12228.00
2019-03-26T12:40:24.266Z,11659.00